Portada
METAR-TAF:

METAR-TAF

Aeroports :

Dhahran, Aràbia Saudita

latitud: 26-16N, longitud: 050-09E, altitud: 26 m

Observació

L'informe es va fer fa 19 minuts, a les 08:00 UTC
Vent 4 kt amb direcció variable
Temperatura 30°C
Humitat 33%
Pressió 1015 hPa
Visibilitat 10 km o més
Escasses núvols a una alçada de 3000 ft, Cumulus congestus.
Escasses núvols a una alçada de 4000 ft

METAR: OEDR 120800Z VRB04KT 9999 FEW030TCU FEW040 30/12 Q1015 NOSIG

Hora: 11:19 (08:19 UTC)

Pronòstic

L'informe es va fer fa 5 hores i 19 minuts, a les 03:00 UTC
Pronòstic vàlid del 12 a les 06 UTC al 13 a les 12 UTC
Vent 10 kt del Nord-Est
Visibilitat 10 km o més
sense núvols per sota de 1500 mi sense presència de cumulonimbus.
Evolucionant progressivament
l' 12 a les 18 UTC al 12 a les 20 UTC
Vent 3 kt amb direcció variable

TAF: OEDR 120300Z 1206/1312 04010KT CAVOK BECMG 1218/1220 VRB03KT

Observacions i pronòstics meteorològics de més de 4000 aeroports (METAR i TAF).

Les estacions disponibles són els punts grocs i vermells al mapa.

Posi el ratolí al punt desitjat per veure el nom de l'estació.

Feu clic per veure les observacions i els pronòstics meteorològics.

Per canviar el mapa: feu clic els botons verds amb una creu de color negre per apropar; al botó verd amb un guió per allunyar la imatge; o en les fletxes verdes per a mapes adjacents.


METAR-TAF: